Time;durP1;ratioP1;P1;durP2;ratioP2;P2;SDS_P1;SDS_P2;PMS_P1;PMS_P2;Temp;Humidity;BMP_temperature;BMP_pressure;BME280_temperature;BME280_humidity;BME280_pressure;Samples;Min_cycle;Max_cycle;Signal;HPM_P1;HPM_P2
2022/10/27 00:02:15;;;;;;;1.85;0.90;;;13.70;99.90;;;13.86;100.00;101688.69;5241137;28;20049;-75
2022/10/27 00:04:47;;;;;;;1.55;1.00;;;13.60;99.90;;;13.85;100.00;101687.81;5226298;28;20048;-74
2022/10/27 00:07:21;;;;;;;1.10;0.80;;;13.60;99.90;;;13.85;100.00;101689.53;5226107;28;20045;-74
2022/10/27 00:09:53;;;;;;;2.22;1.17;;;13.60;99.90;;;13.84;100.00;101691.28;5225953;28;20053;-74
2022/10/27 00:12:25;;;;;;;1.45;0.80;;;13.60;99.90;;;13.82;100.00;101687.72;5241142;28;20045;-74
2022/10/27 00:14:57;;;;;;;2.10;0.82;;;13.60;99.90;;;13.80;100.00;101680.63;5226013;28;20041;-74
2022/10/27 00:17:30;;;;;;;1.65;1.00;;;13.60;99.90;;;13.77;100.00;101681.41;5207738;28;20108;-74
2022/10/27 00:20:04;;;;;;;1.58;0.73;;;13.60;99.90;;;13.73;100.00;101690.00;5225703;28;20049;-74
2022/10/27 00:22:37;;;;;;;2.05;0.90;;;13.50;99.90;;;13.71;100.00;101689.06;5225547;28;20048;-75
2022/10/27 00:25:10;;;;;;;1.70;1.25;;;13.50;99.90;;;13.69;100.00;101688.13;5225585;28;20412;-74
2022/10/27 00:27:42;;;;;;;1.58;0.98;;;13.50;99.90;;;13.68;100.00;101688.03;5226082;28;20044;-75
2022/10/27 00:30:14;;;;;;;1.70;1.00;;;13.50;99.90;;;13.66;100.00;101693.22;5225668;28;20542;-73
2022/10/27 00:32:47;;;;;;;2.55;0.98;;;13.40;99.90;;;13.66;100.00;101693.22;5225435;28;20053;-74
2022/10/27 00:35:19;;;;;;;1.38;1.10;;;13.40;99.90;;;13.66;100.00;101693.22;5225727;28;20041;-74
2022/10/27 00:37:52;;;;;;;1.73;1.00;;;13.40;99.90;;;13.67;100.00;101688.88;5225212;28;20045;-73
2022/10/27 00:40:24;;;;;;;3.45;1.20;;;13.50;99.90;;;13.64;100.00;101687.06;5225397;28;20548;-75
2022/10/27 00:42:57;;;;;;;1.75;0.90;;;13.50;99.90;;;13.63;100.00;101693.13;5240457;28;20048;-74
2022/10/27 00:45:30;;;;;;;1.83;0.93;;;13.40;99.90;;;13.61;100.00;101700.03;5224861;28;20041;-74
2022/10/27 00:48:03;;;;;;;1.88;1.15;;;13.40;99.90;;;13.57;100.00;101699.03;5240853;28;20547;-75
2022/10/27 00:50:35;;;;;;;1.60;0.85;;;13.40;99.90;;;13.53;100.00;101696.22;5207167;28;20049;-74
2022/10/27 00:53:09;;;;;;;0.70;0.70;;;13.30;99.90;;;13.48;100.00;101698.66;5225272;28;20489;-74
2022/10/27 00:55:43;;;;;;;1.40;0.90;;;13.30;99.90;;;13.47;100.00;101701.25;5240521;28;20045;-74
2022/10/27 00:58:19;;;;;;;1.88;1.00;;;13.30;99.90;;;13.45;100.00;101698.56;5225119;28;20051;-75
2022/10/27 01:00:51;;;;;;;1.42;0.85;;;13.20;99.90;;;13.47;100.00;101696.91;5206752;28;20505;-74
2022/10/27 01:03:24;;;;;;;1.73;0.90;;;13.20;99.90;;;13.50;100.00;101697.03;5224918;28;20049;-74
2022/10/27 01:05:58;;;;;;;0.60;0.60;;;13.30;99.90;;;13.49;100.00;101692.59;5225179;28;20052;-75
2022/10/27 01:08:31;;;;;;;1.02;0.60;;;13.30;99.90;;;13.49;100.00;101694.31;5239929;28;20525;-76
2022/10/27 01:11:04;;;;;;;1.27;0.80;;;13.30;99.90;;;13.49;100.00;101689.09;5224298;28;20052;-75
2022/10/27 01:13:37;;;;;;;1.20;0.80;;;13.30;99.90;;;13.49;100.00;101683.84;5224624;28;20505;-74
2022/10/27 01:16:24;;;;;;;1.95;1.05;;;13.30;99.90;;;13.50;100.00;101691.78;5224991;28;20136;-74
2022/10/27 01:19:15;;;;;;;2.60;0.95;;;13.30;99.90;;;13.49;100.00;101686.47;5206940;28;20434;-74
2022/10/27 01:22:07;;;;;;;1.48;0.90;;;13.30;99.90;;;13.49;100.00;101689.09;5224465;28;20056;-73
2022/10/27 01:25:04;;;;;;;1.02;0.70;;;13.30;99.90;;;13.45;100.00;101684.59;5206982;28;20512;-74
2022/10/27 01:28:00;;;;;;;0.82;0.80;;;13.30;99.90;;;13.41;100.00;101690.53;5224176;28;20127;-73
2022/10/27 01:30:48;;;;;;;1.17;0.90;;;13.20;99.90;;;13.39;100.00;101693.09;5206233;28;20044;-76
2022/10/27 01:33:24;;;;;;;;;;;13.20;99.90;;;13.34;100.00;101699.00;5225056;28;20041;-74
2022/10/27 01:36:03;;;;;;;1.73;0.80;;;13.20;99.90;;;13.32;100.00;101698.94;5224265;28;19924;-74
2022/10/27 01:38:43;;;;;;;2.05;0.80;;;13.10;99.90;;;13.31;100.00;101697.16;5206493;28;20045;-74
2022/10/27 01:41:22;;;;;;;1.00;0.90;;;13.10;99.90;;;13.29;100.00;101699.72;5223825;28;20516;-75
2022/10/27 01:44:00;;;;;;;2.08;0.98;;;13.10;99.90;;;13.28;100.00;101700.53;5224852;28;20318;-74
2022/10/27 01:46:34;;;;;;;1.17;0.70;;;13.10;99.90;;;13.26;100.00;101696.97;5223391;28;20102;-74
2022/10/27 01:49:08;;;;;;;2.03;0.93;;;13.10;99.90;;;13.24;100.00;101698.66;5224613;28;20099;-74
2022/10/27 01:51:41;;;;;;;1.35;1.08;;;13.10;99.90;;;13.22;100.00;101702.94;5205974;28;20052;-74
2022/10/27 01:54:13;;;;;;;0.80;0.60;;;13.10;99.90;;;13.18;100.00;101708.88;5224518;28;20123;-74
2022/10/27 01:57:04;;;;;;;1.73;0.80;;;13.00;99.90;;;13.17;100.00;101706.16;5224361;28;20171;-74
2022/10/27 01:59:55;;;;;;;1.00;0.80;;;13.00;99.90;;;13.17;100.00;101707.09;5228762;28;20086;-75
2022/10/27 02:02:37;;;;;;;1.05;0.77;;;13.00;99.90;;;13.18;100.00;101705.34;5243800;28;20049;-73
2022/10/27 02:05:15;;;;;;;0.85;0.80;;;13.00;99.90;;;13.18;100.00;101708.88;5228353;28;20041;-74
2022/10/27 02:07:55;;;;;;;1.00;0.90;;;13.00;99.90;;;13.18;100.00;101708.88;5228327;28;20043;-74
2022/10/27 02:10:35;;;;;;;1.45;0.82;;;13.00;99.90;;;13.16;100.00;101705.28;5227971;28;20044;-74
2022/10/27 02:13:08;;;;;;;1.45;0.85;;;13.00;99.90;;;13.16;100.00;101707.00;5210069;28;20405;-74
2022/10/27 02:15:47;;;;;;;1.30;1.10;;;13.00;99.90;;;13.13;100.00;101705.16;5210186;28;20037;-74
2022/10/27 02:18:25;;;;;;;1.15;0.70;;;12.90;99.90;;;13.11;100.00;101712.09;5228109;28;20041;-75
2022/10/27 02:21:03;;;;;;;0.75;0.73;;;12.90;99.90;;;13.08;100.00;101717.19;5243338;28;20071;-74
2022/10/27 02:23:36;;;;;;;1.80;0.77;;;12.90;99.90;;;13.04;100.00;101704.81;5228883;28;20144;-75
2022/10/27 02:26:15;;;;;;;1.25;0.80;;;12.90;99.90;;;13.01;100.00;101704.69;5227914;28;20053;-74
2022/10/27 02:28:54;;;;;;;1.55;0.90;;;12.80;99.90;;;12.98;100.00;101704.59;5228291;28;20099;-74
2022/10/27 02:31:33;;;;;;;1.92;0.90;;;12.80;99.90;;;12.96;100.00;101695.75;5227615;28;20055;-74
2022/10/27 02:34:07;;;;;;;1.23;0.80;;;12.80;99.90;;;12.95;100.00;101691.34;5228005;28;20052;-74
2022/10/27 02:36:40;;;;;;;2.13;0.85;;;12.80;99.90;;;12.95;100.00;101699.22;5227892;28;20049;-76
2022/10/27 02:39:12;;;;;;;2.35;0.88;;;12.80;99.90;;;12.93;100.00;101706.13;5227790;28;20049;-75
2022/10/27 02:41:46;;;;;;;1.45;0.90;;;12.80;99.90;;;12.91;100.00;101703.44;5242504;28;20508;-74
2022/10/27 02:44:18;;;;;;;1.10;0.77;;;12.80;99.90;;;12.91;100.00;101702.53;5227738;28;20135;-76
2022/10/27 02:46:50;;;;;;;1.60;0.88;;;12.70;99.90;;;12.88;100.00;101703.31;5242848;28;20053;-76
2022/10/27 02:49:23;;;;;;;2.20;0.90;;;12.70;99.90;;;12.86;100.00;101704.97;5227670;28;20049;-76
2022/10/27 02:51:56;;;;;;;0.93;0.70;;;12.70;99.90;;;12.84;100.00;101703.13;5227017;28;20055;-74
2022/10/27 02:54:28;;;;;;;1.58;0.65;;;12.70;99.90;;;12.81;100.00;101703.00;5227322;28;20049;-73
2022/10/27 02:57:00;;;;;;;2.75;0.73;;;12.70;99.90;;;12.76;100.00;101701.09;5227711;28;20045;-74
2022/10/27 02:59:33;;;;;;;0.82;0.73;;;12.60;99.90;;;12.74;100.00;101705.38;5227300;28;20108;-76
2022/10/27 03:02:05;;;;;;;0.80;0.70;;;12.60;99.90;;;12.72;100.00;101695.69;5227322;28;20048;-74
2022/10/27 03:04:39;;;;;;;1.00;0.80;;;12.60;99.90;;;12.71;100.00;101705.28;5242694;28;20049;-74
2022/10/27 03:07:11;;;;;;;0.77;0.60;;;12.50;99.90;;;12.72;100.00;101707.03;5227258;28;20055;-76
2022/10/27 03:09:43;;;;;;;1.00;0.65;;;12.50;99.90;;;12.72;100.00;101707.03;5226350;28;20044;-76
2022/10/27 03:12:15;;;;;;;1.50;0.68;;;12.50;99.90;;;12.72;100.00;101712.28;5225885;28;20060;-74
2022/10/27 03:14:47;;;;;;;1.02;0.85;;;12.60;99.90;;;12.72;100.00;101704.44;5227380;28;20053;-75
2022/10/27 03:17:19;;;;;;;1.23;0.70;;;12.50;99.90;;;12.73;100.00;101706.22;5242526;28;20076;-74
2022/10/27 03:19:53;;;;;;;1.30;0.75;;;12.50;99.90;;;12.72;100.00;101696.59;5227348;28;20102;-75
2022/10/27 03:22:25;;;;;;;1.35;0.80;;;12.60;99.90;;;12.70;100.00;101693.00;5241998;28;20048;-74
2022/10/27 03:24:57;;;;;;;1.27;0.85;;;12.50;99.90;;;12.68;100.00;101694.66;5226800;28;20508;-74
2022/10/27 03:27:29;;;;;;;0.77;0.55;;;12.50;99.90;;;12.65;100.00;101693.63;5226818;28;20044;-74
2022/10/27 03:30:01;;;;;;;2.15;1.15;;;12.50;99.90;;;12.60;100.00;101698.69;5226352;28;20401;-73
2022/10/27 03:32:33;;;;;;;1.55;0.93;;;12.50;99.90;;;12.56;100.00;101694.16;5241672;28;20041;-74
2022/10/27 03:35:09;;;;;;;1.13;0.73;;;12.40;99.90;;;12.54;100.00;101694.94;5226661;28;20034;-73
2022/10/27 03:37:41;;;;;;;1.48;1.10;;;12.40;99.90;;;12.49;100.00;101686.91;5227050;28;20401;-74
2022/10/27 03:40:13;;;;;;;1.02;0.93;;;12.40;99.90;;;12.46;100.00;101690.28;5226257;28;20052;-74
2022/10/27 03:42:45;;;;;;;1.67;0.95;;;12.30;99.90;;;12.43;100.00;101692.75;5226349;28;20056;-74
2022/10/27 03:45:18;;;;;;;1.00;0.77;;;12.30;99.90;;;12.42;100.00;101690.09;5226664;28;20115;-74
2022/10/27 03:47:59;;;;;;;2.10;1.20;;;12.30;99.90;;;12.40;100.00;101686.53;5226559;28;20471;-74
2022/10/27 03:50:33;;;;;;;2.38;1.10;;;12.20;99.90;;;12.38;100.00;101688.16;5208394;28;20055;-74
2022/10/27 03:53:06;;;;;;;1.08;0.80;;;12.20;99.90;;;12.38;100.00;101682.94;5226071;28;20041;-74
2022/10/27 03:55:38;;;;;;;2.10;1.00;;;12.20;99.90;;;12.36;100.00;101679.38;5208441;28;20044;-74
2022/10/27 03:58:13;;;;;;;1.92;0.98;;;12.20;99.90;;;12.35;100.00;101683.72;5226358;28;20048;-74
2022/10/27 04:00:46;;;;;;;1.65;1.08;;;12.20;99.90;;;12.37;100.00;101683.78;5226211;28;20045;-74
2022/10/27 04:03:18;;;;;;;2.15;1.48;;;12.20;99.90;;;12.37;100.00;101683.78;5226461;28;20047;-74
2022/10/27 04:05:53;;;;;;;1.15;0.82;;;12.20;99.90;;;12.35;100.00;101685.44;5225931;28;20055;-74
2022/10/27 04:08:25;;;;;;;1.10;1.00;;;12.20;99.90;;;12.33;100.00;101680.16;5226033;28;20493;-74
2022/10/27 04:10:57;;;;;;;0.80;0.80;;;12.20;99.90;;;12.30;100.00;101673.88;5225950;28;20037;-74
2022/10/27 04:13:29;;;;;;;1.83;1.15;;;12.20;99.90;;;12.25;100.00;101676.31;5478572;22;20101;-72
2022/10/27 04:16:02;;;;;;;1.02;0.93;;;12.10;99.90;;;12.22;100.00;101679.69;5260485;28;20048;-73
2022/10/27 04:18:34;;;;;;;1.20;1.05;;;12.10;99.90;;;12.20;100.00;101683.09;5267307;28;20045;-74
2022/10/27 04:21:07;;;;;;;2.85;1.08;;;12.10;99.90;;;12.18;100.00;101683.00;5250650;28;20055;-73
2022/10/27 04:23:40;;;;;;;1.30;0.88;;;12.00;99.90;;;12.17;100.00;101683.81;5229033;28;20044;-74
2022/10/27 04:26:12;;;;;;;1.27;0.80;;;12.00;99.90;;;12.15;100.00;101680.25;5226144;28;20041;-74
2022/10/27 04:28:44;;;;;;;1.08;0.80;;;12.00;99.90;;;12.13;100.00;101676.69;5225704;28;20045;-73
2022/10/27 04:31:16;;;;;;;1.17;1.08;;;12.00;99.90;;;12.13;100.00;101675.81;5226682;28;20429;-73
2022/10/27 04:33:48;;;;;;;2.45;1.13;;;12.00;99.90;;;12.12;100.00;101668.78;5226456;28;20049;-72
2022/10/27 04:36:21;;;;;;;2.45;0.70;;;12.00;99.90;;;12.11;100.00;101678.34;5226279;28;20041;-73
2022/10/27 04:38:53;;;;;;;1.27;1.10;;;12.00;99.90;;;12.10;100.00;101675.66;5226394;28;20409;-73
2022/10/27 04:41:26;;;;;;;1.25;1.10;;;12.00;99.90;;;12.09;100.00;101672.16;5226198;28;20409;-73
2022/10/27 04:43:58;;;;;;;2.40;1.10;;;12.00;99.90;;;12.07;100.00;101678.16;5226171;28;20436;-73
2022/10/27 04:46:30;;;;;;;1.15;0.75;;;11.90;99.90;;;12.06;100.00;101673.72;5226140;28;20098;-73
2022/10/27 04:49:02;;;;;;;1.00;0.70;;;11.90;99.90;;;12.03;100.00;101678.84;5226078;28;20045;-73
2022/10/27 04:51:35;;;;;;;1.88;1.33;;;11.90;99.90;;;12.01;100.00;101689.25;5225764;28;20437;-72
2022/10/27 04:54:07;;;;;;;1.52;0.90;;;11.90;99.90;;;12.00;100.00;101682.25;5225995;28;20043;-73
2022/10/27 04:56:40;;;;;;;1.00;0.80;;;11.90;99.90;;;11.99;100.00;101680.41;5225968;28;20114;-73
2022/10/27 04:59:12;;;;;;;2.42;1.40;;;11.90;99.90;;;11.98;100.00;101685.59;5208019;28;20653;-73
2022/10/27 05:01:44;;;;;;;2.40;1.00;;;11.90;99.90;;;11.97;100.00;101695.16;5225859;28;20051;-72
2022/10/27 05:04:16;;;;;;;1.50;0.98;;;11.90;99.90;;;11.98;100.00;101690.81;5225763;28;20052;-72
2022/10/27 05:06:50;;;;;;;1.05;0.80;;;11.80;99.90;;;11.95;100.00;101688.97;5207969;28;20160;-73
2022/10/27 05:09:22;;;;;;;1.70;1.17;;;11.80;99.90;;;11.95;100.00;101691.59;5225769;28;20049;-72
2022/10/27 05:11:54;;;;;;;1.63;1.10;;;11.80;99.90;;;11.97;100.00;101689.94;5225967;28;20056;-72
2022/10/27 05:14:26;;;;;;;2.17;1.15;;;11.80;99.90;;;12.03;100.00;101684.06;5225917;28;20049;-72
2022/10/27 05:16:58;;;;;;;3.70;1.20;;;11.90;99.90;;;12.07;100.00;101676.44;5225817;28;20505;-73
2022/10/27 05:19:30;;;;;;;2.67;1.33;;;11.90;99.90;;;12.10;100.00;101681.78;5225727;28;20497;-73
2022/10/27 05:22:04;;;;;;;3.92;1.20;;;12.00;99.90;;;12.14;100.00;101678.47;5225564;28;20048;-73
2022/10/27 05:24:36;;;;;;;3.42;1.45;;;12.00;99.90;;;12.20;100.00;101686.59;5225564;28;20040;-73
2022/10/27 05:27:08;;;;;;;2.83;1.42;;;12.00;99.90;;;12.28;100.00;101686.91;5225572;28;20161;-73
2022/10/27 05:29:40;;;;;;;2.03;1.65;;;12.20;99.90;;;12.34;100.00;101694.13;5225778;28;20405;-73
2022/10/27 05:32:12;;;;;;;2.30;1.70;;;12.20;99.90;;;12.42;100.00;101690.09;5225184;28;20415;-70
2022/10/27 05:34:44;;;;;;;4.05;1.52;;;12.30;99.90;;;12.50;100.00;101691.28;5225273;28;20501;-71
2022/10/27 05:37:18;;;;;;;2.97;1.40;;;12.40;99.90;;;12.60;100.00;101687.34;5225120;28;20052;-71
2022/10/27 05:39:50;;;;;;;4.07;1.60;;;12.50;99.90;;;12.67;100.00;101682.41;5224792;28;20479;-71
2022/10/27 05:42:22;;;;;;;2.85;1.50;;;12.60;99.90;;;12.74;100.00;101692.28;5225092;28;20045;-71
2022/10/27 05:44:54;;;;;;;3.55;1.50;;;12.60;99.90;;;12.82;100.00;101692.59;5225084;28;20049;-71
2022/10/27 05:47:26;;;;;;;2.97;1.60;;;12.70;99.90;;;12.88;100.00;101686.72;5225140;28;20402;-70
2022/10/27 05:49:58;;;;;;;3.20;1.55;;;12.70;99.90;;;12.91;100.00;101692.06;5224982;28;20037;-70
2022/10/27 05:52:31;;;;;;;1.98;1.15;;;12.80;99.90;;;12.93;100.00;101695.66;5207236;28;20521;-70
2022/10/27 05:55:04;;;;;;;1.73;1.10;;;12.80;99.90;;;12.90;100.00;101704.25;5225028;28;20067;-71
2022/10/27 05:57:36;;;;;;;2.75;1.40;;;12.80;99.90;;;12.87;100.00;101714.63;5224881;28;20509;-71
2022/10/27 06:00:10;;;;;;;1.42;1.25;;;12.80;99.90;;;12.83;100.00;101703.94;5224871;28;20045;-71
2022/10/27 06:02:42;;;;;;;2.45;1.10;;;12.70;99.90;;;12.79;100.00;101695.09;5224826;28;20041;-72
2022/10/27 06:05:14;;;;;;;3.38;1.08;;;12.70;99.90;;;12.75;100.00;101703.66;5224279;28;20539;-55
2022/10/27 06:07:49;;;;;;;1.33;1.00;;;12.60;99.90;;;12.70;100.00;101700.84;5223685;28;20037;-58
2022/10/27 06:10:21;;;;;;;2.20;1.25;;;12.60;99.90;;;12.67;100.00;101698.13;5223649;28;20045;-57
2022/10/27 06:12:53;;;;;;;1.92;1.20;;;12.60;99.90;;;12.64;100.00;101703.19;5223740;28;20061;-59
2022/10/27 06:15:25;;;;;;;2.17;1.15;;;12.50;99.90;;;12.63;100.00;101696.19;5223792;28;20056;-56
2022/10/27 06:17:57;;;;;;;3.05;1.67;;;12.50;99.90;;;12.63;100.00;101698.81;5224194;28;20382;-58
2022/10/27 06:20:30;;;;;;;2.92;1.40;;;12.50;99.90;;;12.63;100.00;101696.19;5223648;28;20076;-56
2022/10/27 06:23:03;;;;;;;3.42;1.33;;;12.50;99.90;;;12.68;100.00;101699.91;5223802;28;20048;-58
2022/10/27 06:25:35;;;;;;;2.40;1.35;;;12.50;99.90;;;12.76;100.00;101703.69;5223836;28;20049;-56
2022/10/27 06:28:07;;;;;;;3.10;1.13;;;12.60;99.90;;;12.85;100.00;101702.31;5223886;28;20501;-57
2022/10/27 06:30:39;;;;;;;2.83;1.55;;;12.70;99.90;;;12.89;100.00;101696.34;5223302;28;20057;-56
2022/10/27 06:33:11;;;;;;;2.92;1.50;;;12.80;99.90;;;12.92;100.00;101699.09;5223712;28;20041;-57
2022/10/27 06:35:46;;;;;;;2.40;1.40;;;12.80;99.90;;;12.94;100.00;101702.66;5223781;28;20044;-59
2022/10/27 06:38:19;;;;;;;2.65;1.33;;;12.80;99.90;;;12.96;100.00;101714.06;5223999;28;20103;-58
2022/10/27 06:40:51;;;;;;;2.92;1.45;;;12.80;99.90;;;12.96;100.00;101711.47;5223333;28;20052;-59
2022/10/27 06:43:23;;;;;;;5.05;2.45;;;12.80;99.90;;;12.98;100.00;101710.72;5224952;28;20044;-57
2022/10/27 06:45:55;;;;;;;4.03;1.65;;;12.80;99.90;;;13.06;100.00;101708.38;5227650;28;20071;-59
2022/10/27 06:48:27;;;;;;;3.05;1.70;;;12.90;99.90;;;13.17;100.00;101709.69;5227330;28;20502;-59
2022/10/27 06:50:59;;;;;;;4.47;1.95;;;13.00;99.90;;;13.28;100.00;101711.00;5227189;28;20468;-59
2022/10/27 06:53:33;;;;;;;3.30;1.38;;;13.10;99.90;;;13.39;100.00;101714.06;5227321;28;20049;-58
2022/10/27 06:56:05;;;;;;;3.03;1.38;;;13.30;99.90;;;13.49;100.00;101710.03;5209545;28;20041;-59
2022/10/27 06:58:39;;;;;;;3.60;1.45;;;13.40;99.90;;;13.57;100.00;101716.47;5227304;28;20072;-59
2022/10/27 07:01:11;;;;;;;3.33;1.63;;;13.40;99.90;;;13.63;100.00;101716.72;5227381;28;20397;-58
2022/10/27 07:03:43;;;;;;;2.75;1.10;;;13.50;99.90;;;13.69;100.00;101724.81;5227112;28;20056;-58
2022/10/27 07:06:15;;;;;;;3.40;1.40;;;13.50;99.90;;;13.75;100.00;101725.00;5227388;28;20041;-58
2022/10/27 07:08:51;;;;;;;4.28;1.50;;;13.60;99.90;;;13.82;100.00;101721.78;5209219;28;20049;-57
2022/10/27 07:11:27;;;;;;;1.65;1.02;;;13.70;99.90;;;13.87;100.00;101718.41;5226668;28;20572;-58
2022/10/27 07:13:59;;;;;;;2.75;1.00;;;13.70;99.90;;;13.93;100.00;101718.66;5226811;28;20049;-59
2022/10/27 07:16:31;;;;;;;3.70;0.90;;;13.80;99.90;;;14.07;100.00;101712.16;5226865;28;20066;-58
2022/10/27 07:19:03;;;;;;;4.15;1.30;;;13.90;99.90;;;14.35;100.00;101712.28;5226761;28;20052;-60
2022/10/27 07:21:35;;;;;;;2.25;1.50;;;14.20;99.90;;;14.63;100.00;101713.22;5226267;28;20448;-60
2022/10/27 07:24:09;;;;;;;4.30;2.00;;;14.50;99.90;;;14.83;100.00;101713.88;5226749;28;20040;-60
2022/10/27 07:26:41;;;;;;;4.20;1.90;;;14.70;99.90;;;14.97;100.00;101716.94;5226750;28;20075;-60
2022/10/27 07:29:13;;;;;;;6.05;1.83;;;14.90;99.90;;;15.06;100.00;101711.97;5226768;28;20041;-61
2022/10/27 07:31:46;;;;;;;5.43;1.83;;;15.00;99.90;;;15.12;100.00;101718.28;5208224;28;20053;-57
2022/10/27 07:34:18;;;;;;;3.13;1.38;;;15.10;99.90;;;15.12;100.00;101712.16;5226155;28;20067;-58
2022/10/27 07:36:50;;;;;;;3.38;1.67;;;15.10;99.90;;;15.07;100.00;101717.28;5214307;28;20061;-59
2022/10/27 07:39:24;;;;;;;5.40;2.13;;;15.00;99.90;;;15.03;100.00;101711.88;5230111;28;20398;-58
2022/10/27 07:41:56;;;;;;;2.92;1.42;;;14.90;99.90;;;15.03;100.00;101704.00;5238955;28;20110;-59
2022/10/27 07:44:28;;;;;;;4.07;1.30;;;14.90;99.90;;;15.04;100.00;101698.78;5230309;28;20045;-59
2022/10/27 07:47:00;;;;;;;2.50;1.20;;;14.90;99.90;;;15.12;100.00;101701.66;5225143;28;20099;-59
2022/10/27 07:49:32;;;;;;;3.47;1.63;;;15.00;99.90;;;15.22;100.00;101698.47;5226363;28;20406;-59
2022/10/27 07:52:05;;;;;;;4.85;1.30;;;15.10;99.90;;;15.33;100.00;101690.91;5197330;28;20053;-60
2022/10/27 07:54:38;;;;;;;3.50;1.30;;;15.20;99.90;;;15.36;100.00;101681.38;5229285;28;20048;-56
2022/10/27 07:57:10;;;;;;;3.45;1.00;;;15.20;99.90;;;15.45;100.00;101693.88;5240188;28;20074;-56
2022/10/27 07:59:42;;;;;;;2.28;1.40;;;15.30;99.90;;;15.74;100.00;101690.38;5246786;28;20063;-56
2022/10/27 08:02:14;;;;;;;5.78;1.20;;;15.40;99.90;;;16.47;100.00;101686.16;5246730;28;20044;-56
2022/10/27 08:04:46;;;;;;;2.05;0.82;;;15.80;99.90;;;17.41;100.00;101691.88;5246921;28;20045;-56
2022/10/27 08:07:18;;;;;;;4.55;1.25;;;16.40;99.90;;;18.29;100.00;101698.00;5245916;28;20033;-57
2022/10/27 08:09:52;;;;;;;2.42;1.27;;;17.20;99.90;;;19.17;100.00;101692.34;5242647;28;20412;-58
2022/10/27 08:12:24;;;;;;;3.83;1.17;;;18.00;99.90;;;19.77;100.00;101694.94;5246476;28;20071;-57
2022/10/27 08:14:56;;;;;;;2.70;0.90;;;18.60;99.90;;;20.36;100.00;101690.22;5246459;28;20040;-58
2022/10/27 08:17:31;;;;;;;2.90;1.10;;;19.20;99.90;;;20.81;100.00;101685.31;5246608;28;20043;-59
2022/10/27 08:20:03;;;;;;;;;;;19.70;99.90;;;21.04;99.71;101692.50;5228346;28;20453;-56
2022/10/27 08:22:35;;;;;;;1.27;0.73;;;20.00;99.90;;;21.13;97.54;101689.94;5246441;28;19920;-57
2022/10/27 08:25:09;;;;;;;3.22;0.65;;;20.20;99.90;;;21.14;97.61;101692.59;5246441;28;20106;-58
2022/10/27 08:27:41;;;;;;;2.38;0.98;;;20.30;99.90;;;21.27;97.39;101693.53;5246847;28;20045;-57
2022/10/27 08:30:13;;;;;;;1.77;0.80;;;20.50;99.90;;;21.35;96.52;101701.56;5227915;28;20044;-56
2022/10/27 08:32:47;;;;;;;2.10;0.80;;;20.60;99.90;;;21.31;95.82;101700.63;5245820;28;20054;-56
2022/10/27 08:35:19;;;;;;;3.17;1.00;;;20.70;99.90;;;21.14;95.81;101707.59;5228202;28;20045;-56
2022/10/27 08:37:59;;;;;;;3.22;1.33;;;20.60;99.90;;;21.02;96.56;101707.53;5246081;28;20075;-57
2022/10/27 08:40:43;;;;;;;5.28;1.75;;;20.60;99.90;;;20.85;97.22;101700.34;5245542;28;20084;-58
2022/10/27 08:43:42;;;;;;;2.88;1.15;;;20.50;99.90;;;20.76;98.04;101700.28;5245800;28;20045;-58
2022/10/27 08:46:21;;;;;;;2.22;0.98;;;20.40;99.90;;;20.78;98.70;101687.94;5245906;28;20040;-58
2022/10/27 08:49:00;;;;;;;2.85;1.10;;;20.50;99.90;;;20.81;98.52;101698.56;5244600;28;20053;-57
2022/10/27 08:51:35;;;;;;;4.15;1.13;;;20.50;99.90;;;20.81;97.19;101690.63;5244045;28;20056;-57
2022/10/27 08:54:09;;;;;;;3.22;1.10;;;20.50;99.90;;;20.74;98.22;101686.16;5244806;28;20048;-57
2022/10/27 08:56:43;;;;;;;1.88;1.15;;;20.40;99.90;;;20.77;98.43;101685.28;5245711;28;20041;-58
2022/10/27 08:59:21;;;;;;;2.33;1.10;;;20.40;99.90;;;20.77;97.85;101691.47;5245059;28;20120;-58
2022/10/27 09:02:02;;;;;;;3.28;1.00;;;20.40;99.90;;;20.74;98.23;101682.63;5244938;28;20053;-57
2022/10/27 09:04:59;;;;;;;2.85;1.20;;;20.40;99.90;;;20.75;99.72;101676.44;5245447;28;20400;-58
2022/10/27 09:07:39;;;;;;;3.65;0.88;;;20.40;99.90;;;20.80;100.00;101690.56;5244305;28;20508;-58
2022/10/27 09:10:39;;;;;;;2.65;1.00;;;20.40;99.90;;;20.87;99.20;101684.47;5245084;28;20048;-58
2022/10/27 09:13:27;;;;;;;2.08;0.82;;;20.50;99.90;;;20.94;98.85;101680.09;5245223;28;20517;-59
2022/10/27 09:16:04;;;;;;;2.75;0.88;;;20.50;99.90;;;21.03;98.90;101677.50;5245360;28;20052;-60
2022/10/27 09:18:40;;;;;;;3.05;0.95;;;20.50;99.90;;;21.06;99.00;101667.81;5245041;28;20040;-61
2022/10/27 09:21:17;;;;;;;2.35;1.02;;;20.60;99.90;;;21.11;98.01;101675.75;5244997;28;20110;-62
2022/10/27 09:23:52;;;;;;;3.83;1.00;;;20.60;99.90;;;21.04;98.44;101676.59;5245343;28;20044;-60
2022/10/27 09:26:29;;;;;;;7.25;1.85;;;20.60;99.90;;;21.00;98.59;101680.13;5245299;28;20496;-60
2022/10/27 09:29:09;;;;;;;1.98;1.13;;;20.50;99.90;;;21.02;99.47;101667.78;5245385;28;20079;-59
2022/10/27 09:31:45;;;;;;;3.38;1.23;;;20.50;99.90;;;21.09;99.86;101661.63;5244648;28;20498;-60
2022/10/27 09:34:23;;;;;;;3.08;1.30;;;20.60;99.90;;;21.07;98.78;101653.66;5245265;28;20044;-59
2022/10/27 09:36:55;;;;;;;6.03;1.50;;;20.60;99.90;;;21.03;99.71;101645.69;5245003;28;20410;-61
2022/10/27 09:39:27;;;;;;;2.20;0.98;;;20.60;99.90;;;21.06;99.95;101645.69;5244895;28;20127;-58
2022/10/27 09:41:59;;;;;;;2.70;1.02;;;20.60;99.90;;;21.17;100.00;101640.44;5244727;28;20051;-61
2022/10/27 09:44:33;;;;;;;3.83;1.35;;;20.70;99.90;;;21.18;99.57;101645.75;5244955;28;20048;-61
2022/10/27 09:47:05;;;;;;;2.88;1.20;;;20.70;99.90;;;21.26;100.00;101630.78;5245077;28;20086;-61
2022/10/27 09:49:41;;;;;;;2.60;1.08;;;20.70;99.90;;;21.35;100.00;101638.78;5244641;28;20103;-62
2022/10/27 09:52:18;;;;;;;2.85;1.10;;;20.90;99.90;;;21.51;99.57;101633.53;5245010;28;20037;-61
2022/10/27 09:54:54;;;;;;;2.35;1.48;;;20.90;99.90;;;21.52;99.71;101630.03;5244901;28;20382;-62
2022/10/27 09:57:32;;;;;;;3.28;1.30;;;21.00;99.90;;;21.59;99.08;101634.47;5244804;28;20068;-61
2022/10/27 10:00:23;;;;;;;2.38;0.93;;;21.10;99.90;;;21.63;99.19;101625.59;5244239;28;20502;-60
2022/10/27 10:03:01;;;;;;;2.97;1.02;;;21.10;99.90;;;21.62;99.21;101623.84;5244791;28;20041;-59
2022/10/27 10:05:36;;;;;;;4.57;1.25;;;21.10;99.90;;;21.67;98.87;101622.09;5244831;28;20128;-59
2022/10/27 10:08:17;;;;;;;5.72;1.25;;;21.20;99.90;;;21.67;99.76;101630.06;5244948;28;20052;-59
2022/10/27 10:10:57;;;;;;;3.28;1.00;;;21.20;99.90;;;21.72;100.00;101617.69;5244185;28;20451;-58
2022/10/27 10:13:31;;;;;;;2.90;0.95;;;21.20;99.90;;;21.85;100.00;101622.13;5410373;22;20040;-55
2022/10/27 10:16:10;;;;;;;2.03;1.08;;;21.30;99.90;;;21.93;99.16;101620.38;5251256;28;20044;-56
2022/10/27 10:18:56;;;;;;;5.05;1.38;;;21.40;99.90;;;22.10;99.59;101619.50;5266940;28;20046;-56
2022/10/27 10:21:45;;;;;;;4.68;1.23;;;21.50;99.90;;;22.25;98.78;101613.34;5269654;28;20044;-56
2022/10/27 10:24:21;;;;;;;2.20;1.00;;;21.60;99.90;;;22.38;97.67;101610.66;5248666;28;20048;-56
2022/10/27 10:26:56;;;;;;;3.65;1.30;;;21.80;99.90;;;22.44;97.12;101623.94;5242477;28;20052;-60
2022/10/27 10:29:31;;;;;;;2.67;1.20;;;21.80;99.90;;;22.55;96.83;101621.25;5247744;28;20075;-56
2022/10/27 10:32:14;;;;;;;1.63;1.20;;;21.90;99.90;;;22.63;96.08;101610.66;5248441;28;20047;-56
2022/10/27 10:34:47;;;;;;;4.97;1.40;;;22.10;99.90;;;22.66;95.15;101605.31;5248964;28;20130;-56
2022/10/27 10:37:38;;;;;;;8.43;1.52;;;22.10;99.60;;;22.69;95.24;101607.94;5249048;28;20052;-55
2022/10/27 10:40:28;;;;;;;3.28;1.48;;;22.10;99.50;;;22.67;95.03;101604.41;5210214;28;20052;-56